Time;durP1;ratioP1;P1;durP2;ratioP2;P2;SDS_P1;SDS_P2;PMS_P1;PMS_P2;Temp;Humidity;BMP_temperature;BMP_pressure;BME280_temperature;BME280_humidity;BME280_pressure;Samples;Min_cycle;Max_cycle;Signal;HPM_P1;HPM_P2
2022/05/20 00:03:19;;;;;;;;;;;;;;;;;;21078787;28;19947;-62
2022/05/20 00:13:21;;;;;;;;;;;;;;;;;;21078403;28;20272;-63
2022/05/20 00:23:25;;;;;;;;;;;;;;;;;;21077620;28;20558;-63
2022/05/20 00:33:27;;;;;;;;;;;;;;;;;;21078714;28;20369;-63
2022/05/20 00:43:29;;;;;;;;;;;;;;;;;;21077643;28;19932;-62
2022/05/20 00:53:31;;;;;;;;;;;;;;;;;;21077429;28;19959;-61
2022/05/20 01:03:33;;;;;;;;;;;;;;;;;;21083596;28;19924;-63
2022/05/20 01:13:35;;;;;;;;;;;;;;;;;;21092498;28;19982;-62
2022/05/20 01:23:38;;;;;;;;;;;;;;;;;;21092015;28;20385;-62
2022/05/20 01:33:47;;;;;;;;;;;;;;;;;;21090385;28;19947;-63
2022/05/20 01:43:52;;;;;;;;;;;;;;;;;;21088805;28;19935;-63
2022/05/20 01:53:56;;;;;;;;;;;;;;;;;;21087516;28;19927;-63
2022/05/20 02:04:02;;;;;;;;;;;;;;;;;;21087376;28;19999;-63
2022/05/20 02:14:36;;;;;;;;;;;24.80;37.10;;;;;;21085925;28;19928;-63
2022/05/20 02:24:45;;;;;;;;;;;;;;;;;;21068818;28;20344;-63
2022/05/20 02:34:50;;;;;;;;;;;23.90;39.00;;;;;;21100868;28;19924;-63
2022/05/20 02:44:52;;;;;;;;;;;24.20;38.60;;;;;;21084135;28;19924;-63
2022/05/20 02:54:54;;;;;;;;;;;;;;;;;;21083061;28;19934;-63
2022/05/20 03:04:56;;;;;;;;;;;;;;;;;;21082587;28;19977;-63
2022/05/20 03:14:58;;;;;;;;;;;;;;;;;;21081585;28;20292;-62
2022/05/20 03:25:00;;;;;;;;;;;;;;;;;;21080826;28;19924;-61
2022/05/20 03:35:02;;;;;;;;;;;;;;;;;;21080724;28;20324;-63
2022/05/20 03:45:04;;;;;;;;;;;;;;;;;;21094668;28;19928;-63
2022/05/20 03:55:06;;;;;;;;;;;;;;;;;;21079191;28;20342;-63
2022/05/20 04:05:08;;;;;;;;;;;;;;;;;;21079475;28;20014;-63
2022/05/20 04:15:10;;;;;;;;;;;;;;;;;;21078431;28;19924;-62
2022/05/20 04:25:13;;;;;;;;;;;;;;;;;;21078000;28;20288;-62
2022/05/20 04:35:15;;;;;;;;;;;;;;;;;;21077841;28;19932;-62
2022/05/20 04:55:38;;;;;;;;;;;;;;;;;;21093545;28;19924;-63
2022/05/20 05:05:40;;;;;;;;;;;;;;;;;;21093573;28;20380;-63
2022/05/20 05:15:41;;;;;;;;;;;;;;;;;;21092916;28;20353;-63
2022/05/20 05:25:43;;;;;;;;;;;;;;;;;;21090926;28;19938;-63
2022/05/20 05:35:45;;;;;;;;;;;;;;;;;;21106441;28;19924;-62
2022/05/20 05:45:47;;;;;;;;;;;;;;;;;;21088189;28;19924;-62
2022/05/20 05:55:49;;;;;;;;;;;;;;;;;;21088688;28;19924;-63
2022/05/20 06:05:51;;;;;;;;;;;;;;;;;;21087607;28;19931;-63
2022/05/20 06:15:55;;;;;;;;;;;;;;;;;;21085799;28;19931;-64
2022/05/20 06:25:58;;;;;;;;;;;;;;;;;;21086035;28;19931;-64
2022/05/20 06:46:20;;;;;;;;;;;;;;;;;;21083698;28;20010;-63
2022/05/20 06:56:22;;;;;;;;;;;;;;;;;;21082974;28;19924;-62
2022/05/20 07:06:25;;;;;;;;;;;;;;;;;;21081298;28;19953;-64
2022/05/20 07:16:26;;;;;;;;;;;;;;;;;;21080492;28;19924;-62
2022/05/20 07:26:29;;;;;;;;;;;25.10;36.30;;;;;;21083411;28;19924;-63
2022/05/20 07:36:31;;;;;;;;;;;24.80;36.50;;;;;;21062376;28;19931;-63
2022/05/20 07:46:33;;;;;;;;;;;;;;;;;;21079413;28;19924;-63
2022/05/20 07:56:36;;;;;;;;;;;26.20;35.10;;;;;;21078770;28;19990;-64
2022/05/20 08:06:39;;;;;;;;;;;26.70;33.60;;;;;;21078506;28;19932;-63
2022/05/20 08:16:40;;;;;;;;;;;;;;;;;;21059714;28;19924;-63
2022/05/20 08:26:42;;;;;;;;;;;27.10;32.30;;;;;;21077287;28;19924;-63
2022/05/20 08:36:43;;;;;;;;;;;25.80;33.90;;;;;;21077487;28;19924;-63
2022/05/20 08:46:45;;;;;;;;;;;25.90;33.90;;;;;;21076807;28;20406;-63
2022/05/20 08:56:48;;;;;;;;;;;26.10;33.60;;;;;;21077237;28;19924;-63
2022/05/20 09:06:59;;;;;;;;;;;25.90;33.80;;;;;;21077615;28;19925;-63
2022/05/20 09:17:23;;;;;;;;;;;26.00;33.40;;;;;;21075613;28;19940;-63
2022/05/20 09:27:29;;;;;;;;;;;26.30;33.70;;;;;;21049766;28;19936;-65
2022/05/20 09:37:33;;;;;;;;;;;26.70;33.50;;;;;;21070575;28;19930;-60
2022/05/20 09:47:44;;;;;;;;;;;28.10;31.60;;;;;;21070763;28;19928;-58
2022/05/20 09:57:46;;;;;;;;;;;27.30;32.70;;;;;;21077082;28;20418;-64
2022/05/20 10:08:07;;;;;;;;;;;27.40;32.40;;;;;;21063519;28;20318;-61
2022/05/20 10:18:10;;;;;;;;;;;;;;;;;;21077031;28;19924;-60
2022/05/20 10:28:11;;;;;;;;;;;;;;;;;;21086006;28;19950;-60
2022/05/20 10:38:31;;;;;;;;;;;29.50;29.30;;;;;;21084712;28;19924;-68
2022/05/20 10:48:38;;;;;;;;;;;29.20;29.50;;;;;;21085981;28;19924;-58
2022/05/20 10:58:48;;;;;;;;;;;28.40;30.70;;;;;;21083078;28;19931;-56
2022/05/20 11:09:02;;;;;;;;;;;28.70;30.80;;;;;;21082610;28;20388;-57
2022/05/20 11:19:03;;;;;;;;;;;28.90;30.50;;;;;;21081110;28;19928;-61
2022/05/20 11:29:05;;;;;;;;;;;;;;;;;;21080979;28;19928;-57
2022/05/20 11:39:08;;;;;;;;;;;;;;;;;;21079967;28;19924;-58
2022/05/20 11:49:09;;;;;;;;;;;30.10;28.20;;;;;;21078207;28;20442;-65
2022/05/20 11:59:15;;;;;;;;;;;29.70;28.50;;;;;;21078759;28;20085;-56
2022/05/20 12:09:28;;;;;;;;;;;29.80;28.40;;;;;;21077746;28;19924;-61
2022/05/20 12:30:06;;;;;;;;;;;31.20;26.20;;;;;;21076419;28;19924;-59
2022/05/20 12:40:19;;;;;;;;;;;31.10;26.60;;;;;;21076764;28;20300;-61
2022/05/20 12:50:23;;;;;;;;;;;31.00;26.60;;;;;;21075683;28;20445;-62
2022/05/20 13:00:32;;;;;;;;;;;31.20;25.40;;;;;;21083563;28;20053;-59
2022/05/20 13:10:36;;;;;;;;;;;31.70;24.90;;;;;;21091134;28;20070;-61
2022/05/20 13:20:40;;;;;;;;;;;32.10;25.00;;;;;;21091846;28;20368;-60
2022/05/20 13:30:41;;;;;;;;;;;32.30;24.60;;;;;;21089217;28;19977;-66
2022/05/20 13:40:43;;;;;;;;;;;32.20;24.50;;;;;;21089404;28;20011;-61
2022/05/20 13:50:46;;;;;;;;;;;32.40;24.40;;;;;;21088142;28;19932;-67
2022/05/20 14:00:49;;;;;;;;;;;32.60;24.20;;;;;;21089306;28;19924;-66
2022/05/20 14:10:52;;;;;;;;;;;32.50;24.30;;;;;;21090072;28;19931;-63
2022/05/20 14:21:14;;;;;;;;;;;32.80;23.80;;;;;;21085738;28;19967;-63
2022/05/20 14:31:26;;;;;;;;;;;33.10;23.50;;;;;;21085769;28;19924;-65
2022/05/20 14:41:29;;;;;;;;;;;33.70;22.80;;;;;;21085213;28;19931;-65
2022/05/20 14:51:31;;;;;;;;;;;32.90;24.00;;;;;;21083258;28;19978;-68
2022/05/20 15:01:33;;;;;;;;;;;32.80;23.80;;;;;;21082898;28;19924;-67
2022/05/20 15:11:36;;;;;;;;;;;;;;;;;;21081310;28;19935;-67
2022/05/20 15:21:38;;;;;;;;;;;;;;;;;;21081312;28;20368;-66
2022/05/20 15:42:00;;;;;;;;;;;;;;;;;;21078898;28;19923;-62
2022/05/20 15:52:02;;;;;;;;;;;;;;;;;;21078328;28;19928;-63
2022/05/20 16:02:07;;;;;;;;;;;;;;;;;;21077684;28;19924;-63
2022/05/20 16:12:09;;;;;;;;;;;;;;;;;;21059652;28;20395;-61
2022/05/20 16:22:11;;;;;;;;;;;;;;;;;;21079402;28;19931;-60
2022/05/20 16:32:13;;;;;;;;;;;;;;;;;;21081755;28;19924;-61
2022/05/20 16:42:15;;;;;;;;;;;;;;;;;;21089779;28;19981;-68
2022/05/20 16:52:18;;;;;;;;;;;;;;;;;;21013120;28;19925;-62
2022/05/20 17:02:20;;;;;;;;;;;;;;;;;;21007324;28;19932;-68
2022/05/20 17:12:22;;;;;;;;;;;;;;;;;;21035027;28;19993;-62
2022/05/20 17:32:46;;;;;;;;;;;;;;;;;;21070949;28;19975;-74
2022/05/20 17:42:47;;;;;;;;;;;;;;;;;;21091918;28;19924;-57
2022/05/20 17:52:50;;;;;;;;;;;;;;;;;;21087851;28;19943;-69
2022/05/20 18:02:53;;;;;;;;;;;;;;;;;;21051866;28;20019;-64
2022/05/20 18:12:55;;;;;;;;;;;;;;;;;;21002842;28;20008;-62
2022/05/20 18:22:59;;;;;;;;;;;;;;;;;;21001873;28;19932;-60
2022/05/20 18:33:01;;;;;;;;;;;;;;;;;;21002245;28;19924;-61
2022/05/20 18:43:04;;;;;;;;;;;31.90;29.30;;;;;;21020080;28;19924;-60
2022/05/20 18:53:06;;;;;;;;;;;;;;;;;;21036793;28;19928;-62
2022/05/20 19:13:27;;;;;;;;;;;;;;;;;;21081841;28;19924;-66
2022/05/20 19:23:30;;;;;;;;;;;;;;;;;;21081525;28;19932;-68
2022/05/20 19:33:31;;;;;;;;;;;;;;;;;;21079292;28;19982;-68
2022/05/20 19:43:33;;;;;;;;;;;;;;;;;;21079897;28;19970;-67
2022/05/20 19:53:35;;;;;;;;;;;;;;;;;;21078916;28;20019;-67
2022/05/20 20:03:36;;;;;;;;;;;;;;;;;;21078271;28;20292;-70
2022/05/20 20:13:38;;;;;;;;;;;;;;;;;;21077376;28;20256;-66
2022/05/20 20:34:02;;;;;;;;;;;;;;;;;;21077046;28;19931;-66
2022/05/20 20:44:03;;;;;;;;;;;;;;;;;;21080665;28;20432;-61
2022/05/20 20:54:05;;;;;;;;;;;;;;;;;;21079190;28;19928;-67
2022/05/20 21:04:07;;;;;;;;;;;;;;;;;;21075748;28;20010;-67
2022/05/20 21:14:10;;;;;;;;;;;;;;;;;;21074961;28;20363;-65
2022/05/20 21:24:12;;;;;;;;;;;;;;;;;;21087630;28;20014;-60
2022/05/20 21:34:13;;;;;;;;;;;;;;;;;;21089933;28;20395;-67
2022/05/20 21:44:15;;;;;;;;;;;;;;;;;;21091048;28;19979;-60
2022/05/20 21:54:18;;;;;;;;;;;;;;;;;;21090319;28;19924;-63
2022/05/20 22:14:42;;;;;;;;;;;;;;;;;;21088033;28;19931;-60
2022/05/20 22:24:45;;;;;;;;;;;;;;;;;;21088273;28;19924;-60
2022/05/20 22:34:47;;;;;;;;;;;;;;;;;;21085243;28;19971;-62
2022/05/20 22:44:49;;;;;;;;;;;;;;;;;;21086201;28;19924;-60
2022/05/20 23:05:12;;;;;;;;;;;27.70;36.00;;;;;;21083534;28;19950;-60
2022/05/20 23:15:14;;;;;;;;;;;26.40;37.80;;;;;;21082757;28;20003;-60
2022/05/20 23:25:16;;;;;;;;;;;26.10;38.10;;;;;;21082775;28;19924;-61
2022/05/20 23:35:18;;;;;;;;;;;26.10;38.10;;;;;;21080944;28;19985;-61
2022/05/20 23:45:20;;;;;;;;;;;25.90;38.30;;;;;;21079930;28;20001;-64
